sensor_id;sensor_type;location;lat;lon;timestamp;P1;durP1;ratioP1;P2;durP2;ratioP2
8652;SDS011;4364;52.426;9.424;2023-06-26T00:02:13;10.23;;;9.33;;
8652;SDS011;4364;52.426;9.424;2023-06-26T00:04:41;10.00;;;9.10;;
8652;SDS011;4364;52.426;9.424;2023-06-26T00:07:08;11.90;;;9.33;;
8652;SDS011;4364;52.426;9.424;2023-06-26T00:09:35;10.53;;;9.43;;
8652;SDS011;4364;52.426;9.424;2023-06-26T00:12:02;9.47;;;8.67;;
8652;SDS011;4364;52.426;9.424;2023-06-26T00:14:29;10.03;;;9.07;;
8652;SDS011;4364;52.426;9.424;2023-06-26T00:16:55;10.10;;;9.10;;
8652;SDS011;4364;52.426;9.424;2023-06-26T00:19:22;9.83;;;8.77;;
8652;SDS011;4364;52.426;9.424;2023-06-26T00:21:48;10.37;;;9.40;;
8652;SDS011;4364;52.426;9.424;2023-06-26T00:24:15;9.90;;;9.00;;
8652;SDS011;4364;52.426;9.424;2023-06-26T00:26:42;10.47;;;9.47;;
8652;SDS011;4364;52.426;9.424;2023-06-26T00:29:09;9.93;;;8.93;;
8652;SDS011;4364;52.426;9.424;2023-06-26T00:31:35;9.23;;;8.33;;
8652;SDS011;4364;52.426;9.424;2023-06-26T00:34:02;10.10;;;8.73;;
8652;SDS011;4364;52.426;9.424;2023-06-26T00:36:29;11.33;;;8.83;;
8652;SDS011;4364;52.426;9.424;2023-06-26T00:38:56;9.77;;;8.77;;
8652;SDS011;4364;52.426;9.424;2023-06-26T00:41:22;9.77;;;8.77;;
8652;SDS011;4364;52.426;9.424;2023-06-26T00:43:49;9.60;;;8.60;;
8652;SDS011;4364;52.426;9.424;2023-06-26T00:46:16;9.27;;;8.23;;
8652;SDS011;4364;52.426;9.424;2023-06-26T00:48:44;9.47;;;8.57;;
8652;SDS011;4364;52.426;9.424;2023-06-26T00:51:12;9.40;;;8.50;;
8652;SDS011;4364;52.426;9.424;2023-06-26T00:53:39;9.60;;;8.60;;
8652;SDS011;4364;52.426;9.424;2023-06-26T00:56:06;9.43;;;8.53;;
8652;SDS011;4364;52.426;9.424;2023-06-26T00:58:35;10.20;;;9.20;;
8652;SDS011;4364;52.426;9.424;2023-06-26T01:01:01;9.87;;;8.87;;
8652;SDS011;4364;52.426;9.424;2023-06-26T01:03:29;9.50;;;8.70;;
8652;SDS011;4364;52.426;9.424;2023-06-26T01:05:56;10.10;;;9.20;;
8652;SDS011;4364;52.426;9.424;2023-06-26T01:08:25;9.77;;;8.87;;
8652;SDS011;4364;52.426;9.424;2023-06-26T01:10:53;10.30;;;9.00;;
8652;SDS011;4364;52.426;9.424;2023-06-26T01:13:20;9.83;;;8.83;;
8652;SDS011;4364;52.426;9.424;2023-06-26T01:15:47;9.27;;;8.37;;
8652;SDS011;4364;52.426;9.424;2023-06-26T01:18:15;9.80;;;8.90;;
8652;SDS011;4364;52.426;9.424;2023-06-26T01:20:43;9.97;;;8.97;;
8652;SDS011;4364;52.426;9.424;2023-06-26T01:23:23;9.93;;;8.93;;
8652;SDS011;4364;52.426;9.424;2023-06-26T01:28:47;9.57;;;8.67;;
8652;SDS011;4364;52.426;9.424;2023-06-26T01:31:17;9.47;;;8.47;;
8652;SDS011;4364;52.426;9.424;2023-06-26T01:33:45;10.03;;;9.03;;
8652;SDS011;4364;52.426;9.424;2023-06-26T01:36:13;9.50;;;8.60;;
8652;SDS011;4364;52.426;9.424;2023-06-26T01:38:39;9.93;;;9.03;;
8652;SDS011;4364;52.426;9.424;2023-06-26T01:41:06;9.23;;;8.30;;
8652;SDS011;4364;52.426;9.424;2023-06-26T01:46:33;9.20;;;8.30;;
8652;SDS011;4364;52.426;9.424;2023-06-26T01:51:51;8.83;;;8.00;;
8652;SDS011;4364;52.426;9.424;2023-06-26T01:54:38;9.20;;;8.30;;
8652;SDS011;4364;52.426;9.424;2023-06-26T01:57:09;9.33;;;7.73;;
8652;SDS011;4364;52.426;9.424;2023-06-26T01:59:37;9.30;;;7.97;;
8652;SDS011;4364;52.426;9.424;2023-06-26T02:02:07;9.47;;;8.23;;
8652;SDS011;4364;52.426;9.424;2023-06-26T02:04:36;10.07;;;7.93;;
8652;SDS011;4364;52.426;9.424;2023-06-26T02:07:04;8.43;;;7.63;;
8652;SDS011;4364;52.426;9.424;2023-06-26T02:09:31;10.20;;;8.27;;
8652;SDS011;4364;52.426;9.424;2023-06-26T02:11:58;9.77;;;8.07;;
8652;SDS011;4364;52.426;9.424;2023-06-26T02:14:24;8.57;;;7.37;;
8652;SDS011;4364;52.426;9.424;2023-06-26T02:16:51;8.50;;;7.70;;
8652;SDS011;4364;52.426;9.424;2023-06-26T02:19:17;8.87;;;8.03;;
8652;SDS011;4364;52.426;9.424;2023-06-26T02:21:50;8.37;;;7.57;;
8652;SDS011;4364;52.426;9.424;2023-06-26T02:24:17;8.97;;;7.50;;
8652;SDS011;4364;52.426;9.424;2023-06-26T02:26:44;9.87;;;7.90;;
8652;SDS011;4364;52.426;9.424;2023-06-26T02:29:11;8.23;;;7.43;;
8652;SDS011;4364;52.426;9.424;2023-06-26T02:31:39;9.23;;;7.73;;
8652;SDS011;4364;52.426;9.424;2023-06-26T02:34:06;8.13;;;7.30;;
8652;SDS011;4364;52.426;9.424;2023-06-26T02:36:33;9.00;;;8.10;;
8652;SDS011;4364;52.426;9.424;2023-06-26T02:39:03;9.23;;;7.43;;
8652;SDS011;4364;52.426;9.424;2023-06-26T02:41:32;8.13;;;7.33;;
8652;SDS011;4364;52.426;9.424;2023-06-26T02:43:59;8.67;;;7.77;;
8652;SDS011;4364;52.426;9.424;2023-06-26T02:46:26;8.80;;;7.67;;
8652;SDS011;4364;52.426;9.424;2023-06-26T02:48:53;9.67;;;7.73;;
8652;SDS011;4364;52.426;9.424;2023-06-26T02:51:21;10.23;;;7.60;;
8652;SDS011;4364;52.426;9.424;2023-06-26T02:53:51;8.00;;;7.20;;
8652;SDS011;4364;52.426;9.424;2023-06-26T02:56:17;8.80;;;7.90;;
8652;SDS011;4364;52.426;9.424;2023-06-26T02:58:44;8.80;;;7.90;;
8652;SDS011;4364;52.426;9.424;2023-06-26T03:01:11;8.60;;;7.10;;
8652;SDS011;4364;52.426;9.424;2023-06-26T03:03:40;8.90;;;7.70;;
8652;SDS011;4364;52.426;9.424;2023-06-26T03:06:12;7.90;;;7.07;;
8652;SDS011;4364;52.426;9.424;2023-06-26T03:08:40;10.37;;;7.67;;
8652;SDS011;4364;52.426;9.424;2023-06-26T03:11:07;9.33;;;8.00;;
8652;SDS011;4364;52.426;9.424;2023-06-26T03:13:36;8.70;;;7.80;;
8652;SDS011;4364;52.426;9.424;2023-06-26T03:16:03;7.63;;;6.93;;
8652;SDS011;4364;52.426;9.424;2023-06-26T03:18:30;9.30;;;7.33;;
8652;SDS011;4364;52.426;9.424;2023-06-26T03:20:57;8.83;;;7.83;;
8652;SDS011;4364;52.426;9.424;2023-06-26T03:23:24;9.37;;;7.77;;
8652;SDS011;4364;52.426;9.424;2023-06-26T03:25:51;8.23;;;7.43;;
8652;SDS011;4364;52.426;9.424;2023-06-26T03:28:30;9.07;;;7.73;;
8652;SDS011;4364;52.426;9.424;2023-06-26T03:30:57;9.43;;;8.30;;
8652;SDS011;4364;52.426;9.424;2023-06-26T03:33:25;9.70;;;8.67;;
8652;SDS011;4364;52.426;9.424;2023-06-26T03:35:52;8.87;;;7.97;;
8652;SDS011;4364;52.426;9.424;2023-06-26T03:38:19;8.40;;;7.60;;
8652;SDS011;4364;52.426;9.424;2023-06-26T03:40:46;9.53;;;8.13;;
8652;SDS011;4364;52.426;9.424;2023-06-26T03:43:12;8.47;;;7.67;;
8652;SDS011;4364;52.426;9.424;2023-06-26T03:45:50;8.43;;;7.53;;
8652;SDS011;4364;52.426;9.424;2023-06-26T03:48:16;9.20;;;8.27;;
8652;SDS011;4364;52.426;9.424;2023-06-26T03:50:43;10.10;;;8.00;;
8652;SDS011;4364;52.426;9.424;2023-06-26T03:53:10;9.93;;;7.83;;
8652;SDS011;4364;52.426;9.424;2023-06-26T03:55:39;8.47;;;7.50;;
8652;SDS011;4364;52.426;9.424;2023-06-26T03:58:06;8.53;;;7.70;;
8652;SDS011;4364;52.426;9.424;2023-06-26T04:00:33;9.27;;;7.83;;
8652;SDS011;4364;52.426;9.424;2023-06-26T04:02:59;9.93;;;7.83;;
8652;SDS011;4364;52.426;9.424;2023-06-26T04:05:29;9.37;;;8.23;;
8652;SDS011;4364;52.426;9.424;2023-06-26T04:07:56;9.60;;;7.53;;
8652;SDS011;4364;52.426;9.424;2023-06-26T04:10:22;9.53;;;8.10;;
8652;SDS011;4364;52.426;9.424;2023-06-26T04:12:49;8.43;;;7.63;;
8652;SDS011;4364;52.426;9.424;2023-06-26T04:15:15;8.60;;;7.70;;
8652;SDS011;4364;52.426;9.424;2023-06-26T04:17:42;7.70;;;6.90;;
8652;SDS011;4364;52.426;9.424;2023-06-26T04:20:09;10.90;;;7.33;;
8652;SDS011;4364;52.426;9.424;2023-06-26T04:22:36;7.97;;;7.17;;
8652;SDS011;4364;52.426;9.424;2023-06-26T04:25:03;8.17;;;7.37;;
8652;SDS011;4364;52.426;9.424;2023-06-26T04:27:29;8.10;;;7.27;;
8652;SDS011;4364;52.426;9.424;2023-06-26T04:30:02;8.47;;;7.13;;
8652;SDS011;4364;52.426;9.424;2023-06-26T04:32:29;8.63;;;7.33;;
8652;SDS011;4364;52.426;9.424;2023-06-26T04:34:56;8.13;;;7.33;;
8652;SDS011;4364;52.426;9.424;2023-06-26T04:37:22;8.47;;;7.53;;
8652;SDS011;4364;52.426;9.424;2023-06-26T04:39:50;8.03;;;7.23;;
8652;SDS011;4364;52.426;9.424;2023-06-26T04:42:17;7.40;;;6.70;;
8652;SDS011;4364;52.426;9.424;2023-06-26T04:44:45;8.17;;;7.07;;
8652;SDS011;4364;52.426;9.424;2023-06-26T04:47:12;9.03;;;6.50;;
8652;SDS011;4364;52.426;9.424;2023-06-26T04:49:41;8.60;;;7.00;;
8652;SDS011;4364;52.426;9.424;2023-06-26T04:52:13;8.67;;;7.23;;
8652;SDS011;4364;52.426;9.424;2023-06-26T04:54:39;11.47;;;7.30;;
8652;SDS011;4364;52.426;9.424;2023-06-26T04:57:06;7.97;;;6.97;;
8652;SDS011;4364;52.426;9.424;2023-06-26T04:59:35;8.57;;;7.07;;
8652;SDS011;4364;52.426;9.424;2023-06-26T05:02:01;8.63;;;7.03;;
8652;SDS011;4364;52.426;9.424;2023-06-26T05:04:28;7.23;;;6.53;;
8652;SDS011;4364;52.426;9.424;2023-06-26T05:06:54;8.40;;;7.33;;
8652;SDS011;4364;52.426;9.424;2023-06-26T05:09:21;7.73;;;6.93;;
8652;SDS011;4364;52.426;9.424;2023-06-26T05:11:47;7.50;;;6.70;;
8652;SDS011;4364;52.426;9.424;2023-06-26T05:14:14;12.03;;;7.50;;
8652;SDS011;4364;52.426;9.424;2023-06-26T05:16:40;7.87;;;7.07;;
8652;SDS011;4364;52.426;9.424;2023-06-26T05:19:07;8.00;;;7.20;;
8652;SDS011;4364;52.426;9.424;2023-06-26T05:21:33;8.07;;;7.27;;
8652;SDS011;4364;52.426;9.424;2023-06-26T05:24:04;7.73;;;7.03;;
8652;SDS011;4364;52.426;9.424;2023-06-26T05:26:31;8.80;;;7.10;;
8652;SDS011;4364;52.426;9.424;2023-06-26T05:28:58;7.87;;;7.07;;
8652;SDS011;4364;52.426;9.424;2023-06-26T05:31:25;7.80;;;7.00;;
8652;SDS011;4364;52.426;9.424;2023-06-26T05:33:52;7.80;;;7.00;;
8652;SDS011;4364;52.426;9.424;2023-06-26T05:36:21;8.70;;;6.97;;
8652;SDS011;4364;52.426;9.424;2023-06-26T05:38:50;7.90;;;6.80;;
8652;SDS011;4364;52.426;9.424;2023-06-26T05:41:17;7.47;;;6.77;;
8652;SDS011;4364;52.426;9.424;2023-06-26T05:43:44;8.57;;;7.27;;
8652;SDS011;4364;52.426;9.424;2023-06-26T05:46:11;8.00;;;6.83;;
8652;SDS011;4364;52.426;9.424;2023-06-26T05:48:37;7.53;;;6.83;;
8652;SDS011;4364;52.426;9.424;2023-06-26T05:51:04;7.97;;;7.17;;
8652;SDS011;4364;52.426;9.424;2023-06-26T05:53:31;7.80;;;6.87;;
8652;SDS011;4364;52.426;9.424;2023-06-26T05:55:57;7.80;;;7.00;;
8652;SDS011;4364;52.426;9.424;2023-06-26T05:58:25;8.10;;;7.30;;
8652;SDS011;4364;52.426;9.424;2023-06-26T06:00:53;8.00;;;7.00;;
8652;SDS011;4364;52.426;9.424;2023-06-26T06:03:20;7.37;;;6.67;;
8652;SDS011;4364;52.426;9.424;2023-06-26T06:05:47;8.53;;;6.70;;
8652;SDS011;4364;52.426;9.424;2023-06-26T06:08:13;7.53;;;6.82;;
8652;SDS011;4364;52.426;9.424;2023-06-26T06:10:40;8.10;;;7.30;;
8652;SDS011;4364;52.426;9.424;2023-06-26T06:13:07;8.43;;;7.03;;
8652;SDS011;4364;52.426;9.424;2023-06-26T06:15:33;7.85;;;7.00;;
8652;SDS011;4364;52.426;9.424;2023-06-26T06:18:00;8.18;;;7.05;;
8652;SDS011;4364;52.426;9.424;2023-06-26T06:20:26;8.32;;;6.72;;
8652;SDS011;4364;52.426;9.424;2023-06-26T06:22:53;7.38;;;6.72;;
8652;SDS011;4364;52.426;9.424;2023-06-26T06:25:19;8.82;;;7.22;;
8652;SDS011;4364;52.426;9.424;2023-06-26T06:27:46;7.53;;;6.82;;
8652;SDS011;4364;52.426;9.424;2023-06-26T06:30:12;8.93;;;7.28;;
8652;SDS011;4364;52.426;9.424;2023-06-26T06:32:39;7.28;;;6.60;;
8652;SDS011;4364;52.426;9.424;2023-06-26T06:35:06;8.50;;;6.88;;
8652;SDS011;4364;52.426;9.424;2023-06-26T06:37:37;8.45;;;7.13;;
8652;SDS011;4364;52.426;9.424;2023-06-26T06:40:05;7.30;;;6.55;;
8652;SDS011;4364;52.426;9.424;2023-06-26T06:42:32;9.18;;;7.45;;
8652;SDS011;4364;52.426;9.424;2023-06-26T06:44:59;7.55;;;6.75;;
8652;SDS011;4364;52.426;9.424;2023-06-26T06:47:27;7.10;;;6.38;;
8652;SDS011;4364;52.426;9.424;2023-06-26T06:49:53;7.35;;;6.63;;
8652;SDS011;4364;52.426;9.424;2023-06-26T06:52:20;8.43;;;7.57;;
8652;SDS011;4364;52.426;9.424;2023-06-26T06:54:50;8.68;;;6.97;;
8652;SDS011;4364;52.426;9.424;2023-06-26T06:57:21;7.80;;;7.10;;
8652;SDS011;4364;52.426;9.424;2023-06-26T06:59:48;7.93;;;7.15;;
8652;SDS011;4364;52.426;9.424;2023-06-26T07:02:16;8.48;;;7.28;;
8652;SDS011;4364;52.426;9.424;2023-06-26T07:04:43;7.97;;;7.18;;
8652;SDS011;4364;52.426;9.424;2023-06-26T07:07:10;8.27;;;7.07;;
8652;SDS011;4364;52.426;9.424;2023-06-26T07:09:39;8.27;;;7.47;;
8652;SDS011;4364;52.426;9.424;2023-06-26T07:12:06;9.48;;;7.45;;
8652;SDS011;4364;52.426;9.424;2023-06-26T07:14:33;9.93;;;7.07;;
8652;SDS011;4364;52.426;9.424;2023-06-26T07:16:59;7.93;;;7.13;;
8652;SDS011;4364;52.426;9.424;2023-06-26T07:19:26;8.63;;;7.05;;
8652;SDS011;4364;52.426;9.424;2023-06-26T07:21:52;11.10;;;7.47;;
8652;SDS011;4364;52.426;9.424;2023-06-26T07:24:19;8.77;;;7.70;;
8652;SDS011;4364;52.426;9.424;2023-06-26T07:26:45;11.13;;;7.30;;
8652;SDS011;4364;52.426;9.424;2023-06-26T07:29:16;9.23;;;7.30;;
8652;SDS011;4364;52.426;9.424;2023-06-26T07:31:42;8.50;;;7.60;;
8652;SDS011;4364;52.426;9.424;2023-06-26T07:34:10;8.63;;;7.72;;
8652;SDS011;4364;52.426;9.424;2023-06-26T07:36:37;8.75;;;7.85;;
8652;SDS011;4364;52.426;9.424;2023-06-26T07:39:03;10.68;;;7.85;;
8652;SDS011;4364;52.426;9.424;2023-06-26T07:41:30;10.38;;;8.32;;
8652;SDS011;4364;52.426;9.424;2023-06-26T07:43:58;9.70;;;7.95;;
8652;SDS011;4364;52.426;9.424;2023-06-26T07:46:25;8.95;;;7.97;;
8652;SDS011;4364;52.426;9.424;2023-06-26T07:48:51;8.75;;;7.75;;
8652;SDS011;4364;52.426;9.424;2023-06-26T07:51:18;9.77;;;7.72;;
8652;SDS011;4364;52.426;9.424;2023-06-26T07:53:45;9.30;;;8.38;;
8652;SDS011;4364;52.426;9.424;2023-06-26T07:56:11;8.85;;;7.88;;
8652;SDS011;4364;52.426;9.424;2023-06-26T07:58:38;9.95;;;8.07;;
8652;SDS011;4364;52.426;9.424;2023-06-26T08:01:04;8.98;;;7.70;;
8652;SDS011;4364;52.426;9.424;2023-06-26T08:03:31;10.80;;;8.50;;
8652;SDS011;4364;52.426;9.424;2023-06-26T08:06:01;8.75;;;7.82;;
8652;SDS011;4364;52.426;9.424;2023-06-26T08:08:27;9.32;;;8.27;;
8652;SDS011;4364;52.426;9.424;2023-06-26T08:10:54;9.82;;;8.75;;
8652;SDS011;4364;52.426;9.424;2023-06-26T08:13:21;9.70;;;8.70;;
8652;SDS011;4364;52.426;9.424;2023-06-26T08:15:47;9.32;;;8.43;;
8652;SDS011;4364;52.426;9.424;2023-06-26T08:18:14;12.80;;;8.82;;
8652;SDS011;4364;52.426;9.424;2023-06-26T08:20:40;11.77;;;8.82;;
8652;SDS011;4364;52.426;9.424;2023-06-26T08:23:07;9.68;;;8.73;;
8652;SDS011;4364;52.426;9.424;2023-06-26T08:25:33;10.15;;;9.15;;
8652;SDS011;4364;52.426;9.424;2023-06-26T08:28:00;11.75;;;9.15;;
8652;SDS011;4364;52.426;9.424;2023-06-26T08:30:26;10.80;;;9.70;;
8652;SDS011;4364;52.426;9.424;2023-06-26T08:32:57;11.32;;;10.13;;
8652;SDS011;4364;52.426;9.424;2023-06-26T08:35:24;13.65;;;10.70;;
8652;SDS011;4364;52.426;9.424;2023-06-26T08:37:50;12.68;;;11.30;;
8652;SDS011;4364;52.426;9.424;2023-06-26T08:40:17;11.27;;;10.10;;
8652;SDS011;4364;52.426;9.424;2023-06-26T08:42:47;14.27;;;11.20;;
8652;SDS011;4364;52.426;9.424;2023-06-26T08:45:13;13.13;;;11.77;;
8652;SDS011;4364;52.426;9.424;2023-06-26T08:47:40;12.40;;;11.15;;
8652;SDS011;4364;52.426;9.424;2023-06-26T08:50:08;12.63;;;11.30;;
8652;SDS011;4364;52.426;9.424;2023-06-26T08:55:25;15.45;;;13.05;;
8652;SDS011;4364;52.426;9.424;2023-06-26T08:57:53;14.88;;;12.85;;
8652;SDS011;4364;52.426;9.424;2023-06-26T09:00:20;15.15;;;13.50;;
8652;SDS011;4364;52.426;9.424;2023-06-26T09:02:47;19.15;;;16.38;;
8652;SDS011;4364;52.426;9.424;2023-06-26T09:05:14;19.55;;;14.63;;
8652;SDS011;4364;52.426;9.424;2023-06-26T09:07:40;16.63;;;13.18;;
8652;SDS011;4364;52.426;9.424;2023-06-26T09:10:08;15.60;;;13.45;;
8652;SDS011;4364;52.426;9.424;2023-06-26T09:12:35;15.98;;;14.38;;
8652;SDS011;4364;52.426;9.424;2023-06-26T09:15:03;13.98;;;11.52;;
8652;SDS011;4364;52.426;9.424;2023-06-26T09:17:32;16.35;;;10.52;;
8652;SDS011;4364;52.426;9.424;2023-06-26T09:20:04;11.30;;;10.15;;
8652;SDS011;4364;52.426;9.424;2023-06-26T09:22:33;10.77;;;9.48;;
8652;SDS011;4364;52.426;9.424;2023-06-26T09:25:02;12.50;;;10.40;;
8652;SDS011;4364;52.426;9.424;2023-06-26T09:27:29;12.10;;;10.70;;
8652;SDS011;4364;52.426;9.424;2023-06-26T09:29:57;13.75;;;12.30;;
8652;SDS011;4364;52.426;9.424;2023-06-26T09:32:24;14.30;;;12.80;;
8652;SDS011;4364;52.426;9.424;2023-06-26T09:34:54;14.23;;;12.70;;
8652;SDS011;4364;52.426;9.424;2023-06-26T09:37:26;13.20;;;11.77;;
8652;SDS011;4364;52.426;9.424;2023-06-26T09:39:53;15.50;;;12.60;;
8652;SDS011;4364;52.426;9.424;2023-06-26T09:42:19;15.18;;;13.15;;
8652;SDS011;4364;52.426;9.424;2023-06-26T09:44:47;18.90;;;13.27;;
8652;SDS011;4364;52.426;9.424;2023-06-26T09:47:18;18.50;;;11.73;;
8652;SDS011;4364;52.426;9.424;2023-06-26T09:49:47;15.02;;;11.90;;
8652;SDS011;4364;52.426;9.424;2023-06-26T09:52:16;13.25;;;11.40;;
8652;SDS011;4364;52.426;9.424;2023-06-26T09:54:43;16.95;;;10.85;;
8652;SDS011;4364;52.426;9.424;2023-06-26T09:57:14;19.43;;;10.67;;
8652;SDS011;4364;52.426;9.424;2023-06-26T09:59:43;18.77;;;9.50;;
8652;SDS011;4364;52.426;9.424;2023-06-26T10:02:11;16.90;;;10.27;;
8652;SDS011;4364;52.426;9.424;2023-06-26T10:04:39;19.23;;;11.33;;
8652;SDS011;4364;52.426;9.424;2023-06-26T10:07:12;16.03;;;11.33;;
8652;SDS011;4364;52.426;9.424;2023-06-26T10:09:43;18.10;;;12.07;;
8652;SDS011;4364;52.426;9.424;2023-06-26T10:13:11;19.23;;;12.87;;
8652;SDS011;4364;52.426;9.424;2023-06-26T10:15:45;15.20;;;11.90;;
8652;SDS011;4364;52.426;9.424;2023-06-26T10:18:13;14.37;;;12.50;;
8652;SDS011;4364;52.426;9.424;2023-06-26T10:20:45;17.83;;;12.73;;
8652;SDS011;4364;52.426;9.424;2023-06-26T10:23:14;21.93;;;13.13;;
8652;SDS011;4364;52.426;9.424;2023-06-26T10:25:44;17.50;;;12.87;;
8652;SDS011;4364;52.426;9.424;2023-06-26T10:28:13;14.67;;;13.10;;
8652;SDS011;4364;52.426;9.424;2023-06-26T10:30:42;14.27;;;12.57;;
8652;SDS011;4364;52.426;9.424;2023-06-26T10:33:12;15.93;;;12.30;;
8652;SDS011;4364;52.426;9.424;2023-06-26T10:35:43;17.23;;;12.23;;
8652;SDS011;4364;52.426;9.424;2023-06-26T10:38:10;16.83;;;12.17;;
8652;SDS011;4364;52.426;9.424;2023-06-26T10:40:41;14.83;;;12.17;;
8652;SDS011;4364;52.426;9.424;2023-06-26T10:43:10;15.27;;;12.20;;
8652;SDS011;4364;52.426;9.424;2023-06-26T10:45:50;15.20;;;11.93;;
8652;SDS011;4364;52.426;9.424;2023-06-26T10:48:21;15.53;;;12.27;;
8652;SDS011;4364;52.426;9.424;2023-06-26T10:50:49;14.03;;;12.57;;
8652;SDS011;4364;52.426;9.424;2023-06-26T10:56:01;16.57;;;12.67;;
8652;SDS011;4364;52.426;9.424;2023-06-26T11:03:37;16.60;;;12.60;;
8652;SDS011;4364;52.426;9.424;2023-06-26T11:06:12;13.23;;;11.83;;
8652;SDS011;4364;52.426;9.424;2023-06-26T11:08:44;13.20;;;11.93;;
8652;SDS011;4364;52.426;9.424;2023-06-26T11:11:14;14.93;;;11.63;;
8652;SDS011;4364;52.426;9.424;2023-06-26T11:13:42;13.50;;;10.73;;
8652;SDS011;4364;52.426;9.424;2023-06-26T11:16:12;14.00;;;11.10;;
8652;SDS011;4364;52.426;9.424;2023-06-26T11:18:39;12.13;;;10.23;;
8652;SDS011;4364;52.426;9.424;2023-06-26T11:21:06;12.37;;;10.57;;
8652;SDS011;4364;52.426;9.424;2023-06-26T11:23:35;13.63;;;9.60;;
8652;SDS011;4364;52.426;9.424;2023-06-26T11:26:15;14.17;;;9.33;;
8652;SDS011;4364;52.426;9.424;2023-06-26T11:28:47;8.50;;;6.90;;
8652;SDS011;4364;52.426;9.424;2023-06-26T11:31:28;8.33;;;5.87;;
8652;SDS011;4364;52.426;9.424;2023-06-26T11:33:59;8.27;;;5.20;;
8652;SDS011;4364;52.426;9.424;2023-06-26T11:36:27;9.37;;;5.00;;
8652;SDS011;4364;52.426;9.424;2023-06-26T11:41:28;7.70;;;5.50;;
8652;SDS011;4364;52.426;9.424;2023-06-26T11:44:02;8.40;;;5.10;;
8652;SDS011;4364;52.426;9.424;2023-06-26T11:46:30;8.87;;;4.93;;
8652;SDS011;4364;52.426;9.424;2023-06-26T11:48:57;6.93;;;4.67;;
8652;SDS011;4364;52.426;9.424;2023-06-26T11:51:28;8.37;;;5.00;;
8652;SDS011;4364;52.426;9.424;2023-06-26T11:53:55;8.33;;;5.27;;
8652;SDS011;4364;52.426;9.424;2023-06-26T11:56:21;6.40;;;5.13;;
8652;SDS011;4364;52.426;9.424;2023-06-26T12:01:39;8.03;;;5.60;;
8652;SDS011;4364;52.426;9.424;2023-06-26T12:04:08;7.00;;;4.97;;
8652;SDS011;4364;52.426;9.424;2023-06-26T12:06:37;8.33;;;5.37;;
8652;SDS011;4364;52.426;9.424;2023-06-26T12:09:07;9.50;;;5.40;;
8652;SDS011;4364;52.426;9.424;2023-06-26T12:11:43;7.67;;;5.00;;
8652;SDS011;4364;52.426;9.424;2023-06-26T12:14:10;7.37;;;4.67;;
8652;SDS011;4364;52.426;9.424;2023-06-26T12:16:38;7.20;;;4.47;;
8652;SDS011;4364;52.426;9.424;2023-06-26T12:19:06;5.13;;;3.97;;
8652;SDS011;4364;52.426;9.424;2023-06-26T12:24:03;5.25;;;3.45;;
8652;SDS011;4364;52.426;9.424;2023-06-26T12:26:31;5.00;;;3.58;;
8652;SDS011;4364;52.426;9.424;2023-06-26T12:31:33;4.55;;;3.53;;
8652;SDS011;4364;52.426;9.424;2023-06-26T12:34:00;3.95;;;3.38;;
8652;SDS011;4364;52.426;9.424;2023-06-26T12:36:27;6.15;;;3.50;;
8652;SDS011;4364;52.426;9.424;2023-06-26T12:38:54;5.10;;;3.60;;
8652;SDS011;4364;52.426;9.424;2023-06-26T12:41:23;5.00;;;3.78;;
8652;SDS011;4364;52.426;9.424;2023-06-26T12:43:55;6.22;;;3.75;;
8652;SDS011;4364;52.426;9.424;2023-06-26T12:46:33;6.18;;;3.45;;
8652;SDS011;4364;52.426;9.424;2023-06-26T12:49:01;4.82;;;3.65;;
8652;SDS011;4364;52.426;9.424;2023-06-26T12:51:37;4.47;;;3.42;;
8652;SDS011;4364;52.426;9.424;2023-06-26T12:54:04;5.25;;;3.50;;
8652;SDS011;4364;52.426;9.424;2023-06-26T12:56:30;4.20;;;3.60;;
8652;SDS011;4364;52.426;9.424;2023-06-26T12:58:57;8.32;;;3.35;;
8652;SDS011;4364;52.426;9.424;2023-06-26T13:01:23;3.80;;;3.13;;
8652;SDS011;4364;52.426;9.424;2023-06-26T13:03:50;5.55;;;3.17;;
8652;SDS011;4364;52.426;9.424;2023-06-26T13:06:20;5.15;;;3.10;;
8652;SDS011;4364;52.426;9.424;2023-06-26T13:08:47;8.30;;;3.77;;
8652;SDS011;4364;52.426;9.424;2023-06-26T13:11:13;3.97;;;2.80;;
8652;SDS011;4364;52.426;9.424;2023-06-26T13:13:43;5.35;;;3.05;;
8652;SDS011;4364;52.426;9.424;2023-06-26T13:16:14;5.57;;;3.10;;
8652;SDS011;4364;52.426;9.424;2023-06-26T13:18:41;5.18;;;3.05;;
8652;SDS011;4364;52.426;9.424;2023-06-26T13:21:08;6.55;;;2.90;;
8652;SDS011;4364;52.426;9.424;2023-06-26T13:23:34;6.32;;;3.28;;
8652;SDS011;4364;52.426;9.424;2023-06-26T13:26:01;5.82;;;3.47;;
8652;SDS011;4364;52.426;9.424;2023-06-26T13:28:27;6.80;;;3.25;;
8652;SDS011;4364;52.426;9.424;2023-06-26T13:30:54;11.63;;;3.22;;
8652;SDS011;4364;52.426;9.424;2023-06-26T13:33:20;3.35;;;3.00;;
8652;SDS011;4364;52.426;9.424;2023-06-26T13:35:47;4.15;;;2.88;;
8652;SDS011;4364;52.426;9.424;2023-06-26T13:38:13;5.10;;;3.20;;
8652;SDS011;4364;52.426;9.424;2023-06-26T13:40:40;4.28;;;2.80;;
8652;SDS011;4364;52.426;9.424;2023-06-26T13:43:07;4.45;;;2.95;;
8652;SDS011;4364;52.426;9.424;2023-06-26T13:45:34;6.38;;;3.05;;
8652;SDS011;4364;52.426;9.424;2023-06-26T13:48:00;4.07;;;3.00;;
8652;SDS011;4364;52.426;9.424;2023-06-26T13:50:28;4.05;;;2.80;;
8652;SDS011;4364;52.426;9.424;2023-06-26T13:53:15;3.45;;;2.88;;
8652;SDS011;4364;52.426;9.424;2023-06-26T13:55:42;5.10;;;3.00;;
8652;SDS011;4364;52.426;9.424;2023-06-26T13:58:09;5.78;;;2.97;;
8652;SDS011;4364;52.426;9.424;2023-06-26T14:00:37;4.90;;;2.78;;
8652;SDS011;4364;52.426;9.424;2023-06-26T14:03:04;5.22;;;2.95;;
8652;SDS011;4364;52.426;9.424;2023-06-26T14:05:33;6.13;;;3.33;;
8652;SDS011;4364;52.426;9.424;2023-06-26T14:08:02;6.18;;;3.10;;
8652;SDS011;4364;52.426;9.424;2023-06-26T14:10:31;7.75;;;2.63;;
8652;SDS011;4364;52.426;9.424;2023-06-26T14:12:59;4.13;;;2.80;;
8652;SDS011;4364;52.426;9.424;2023-06-26T14:15:27;5.90;;;3.00;;
8652;SDS011;4364;52.426;9.424;2023-06-26T14:17:54;3.03;;;2.60;;
8652;SDS011;4364;52.426;9.424;2023-06-26T14:20:22;3.85;;;2.75;;
8652;SDS011;4364;52.426;9.424;2023-06-26T14:22:48;4.93;;;2.72;;
8652;SDS011;4364;52.426;9.424;2023-06-26T14:25:16;3.80;;;2.53;;
8652;SDS011;4364;52.426;9.424;2023-06-26T14:27:43;4.45;;;2.65;;
8652;SDS011;4364;52.426;9.424;2023-06-26T14:30:09;4.40;;;2.85;;
8652;SDS011;4364;52.426;9.424;2023-06-26T14:32:36;5.65;;;2.70;;
8652;SDS011;4364;52.426;9.424;2023-06-26T14:35:03;6.30;;;2.95;;
8652;SDS011;4364;52.426;9.424;2023-06-26T14:37:30;6.07;;;2.92;;
8652;SDS011;4364;52.426;9.424;2023-06-26T14:39:57;6.15;;;3.13;;
8652;SDS011;4364;52.426;9.424;2023-06-26T14:42:25;7.05;;;3.28;;
8652;SDS011;4364;52.426;9.424;2023-06-26T14:44:52;3.88;;;2.92;;
8652;SDS011;4364;52.426;9.424;2023-06-26T14:47:19;6.85;;;3.15;;
8652;SDS011;4364;52.426;9.424;2023-06-26T14:49:46;4.63;;;3.05;;
8652;SDS011;4364;52.426;9.424;2023-06-26T14:52:13;3.95;;;3.40;;
8652;SDS011;4364;52.426;9.424;2023-06-26T14:54:39;7.32;;;3.08;;
8652;SDS011;4364;52.426;9.424;2023-06-26T14:57:06;5.63;;;3.10;;
8652;SDS011;4364;52.426;9.424;2023-06-26T14:59:33;6.55;;;2.67;;
8652;SDS011;4364;52.426;9.424;2023-06-26T15:02:00;3.93;;;2.80;;
8652;SDS011;4364;52.426;9.424;2023-06-26T15:04:27;5.77;;;2.70;;
8652;SDS011;4364;52.426;9.424;2023-06-26T15:06:53;4.90;;;2.53;;
8652;SDS011;4364;52.426;9.424;2023-06-26T15:09:20;4.67;;;2.90;;
8652;SDS011;4364;52.426;9.424;2023-06-26T15:11:46;5.18;;;2.90;;
8652;SDS011;4364;52.426;9.424;2023-06-26T15:14:13;4.72;;;2.75;;
8652;SDS011;4364;52.426;9.424;2023-06-26T15:16:39;5.70;;;3.10;;
8652;SDS011;4364;52.426;9.424;2023-06-26T15:19:06;5.20;;;3.13;;
8652;SDS011;4364;52.426;9.424;2023-06-26T15:21:34;4.63;;;2.90;;
8652;SDS011;4364;52.426;9.424;2023-06-26T15:24:01;6.60;;;3.10;;
8652;SDS011;4364;52.426;9.424;2023-06-26T15:26:28;5.63;;;2.83;;
8652;SDS011;4364;52.426;9.424;2023-06-26T15:28:54;3.90;;;2.77;;
8652;SDS011;4364;52.426;9.424;2023-06-26T15:31:21;6.20;;;2.90;;
8652;SDS011;4364;52.426;9.424;2023-06-26T15:33:47;7.03;;;3.10;;
8652;SDS011;4364;52.426;9.424;2023-06-26T15:36:14;7.37;;;2.90;;
8652;SDS011;4364;52.426;9.424;2023-06-26T15:38:40;8.23;;;2.90;;
8652;SDS011;4364;52.426;9.424;2023-06-26T15:41:07;10.30;;;2.97;;
8652;SDS011;4364;52.426;9.424;2023-06-26T15:43:33;10.27;;;3.10;;
8652;SDS011;4364;52.426;9.424;2023-06-26T15:45:59;6.60;;;2.83;;